Terminal Aerodrome Forecast
Issued by NWS

Home | Current Version | Previous Version | Text Only | Print | Product List | Glossary On
Versions: 1 2 3 4 5 6 7 8 9 10 11 12 13 14 15
000
FTUS45 KBYZ 241738
TAFLVM
TAF
KLVM 241738Z 2418/2518 24030G39KT P6SM VCSH SCT060 OVC080
     FM242200 24021G29KT P6SM SCT060 BKN080
     FM251000 24030G40KT P6SM BKN080=

USA.gov is the U.S. government's official web portal to all federal, state and local government web resources and services.